Time;durP1;ratioP1;P1;durP2;ratioP2;P2;SDS_P1;SDS_P2;PMS_P1;PMS_P2;Temp;Humidity;BMP_temperature;BMP_pressure;BME280_temperature;BME280_humidity;BME280_pressure;Samples;Min_cycle;Max_cycle;Signal;HPM_P1;HPM_P2
2024/04/04 00:00:47;;;;;;;8.40;2.50;;;22.00;99.90;;;;;;4932272;29;20431;-67
2024/04/04 00:03:14;;;;;;;8.32;1.75;;;22.10;99.90;;;;;;4932759;28;20032;-68
2024/04/04 00:05:43;;;;;;;7.53;2.20;;;22.10;99.90;;;;;;4931271;29;20034;-68
2024/04/04 00:08:12;;;;;;;8.77;1.95;;;22.10;99.90;;;;;;4931147;29;20032;-67
2024/04/04 00:10:39;;;;;;;8.20;2.25;;;22.10;99.90;;;;;;4932544;29;20485;-67
2024/04/04 00:13:07;;;;;;;8.02;2.88;;;22.20;99.90;;;;;;4932526;29;20027;-67
2024/04/04 00:15:43;;;;;;;7.03;1.85;;;22.10;99.90;;;;;;4932593;28;20075;-68
2024/04/04 00:18:11;;;;;;;7.47;1.85;;;22.00;99.90;;;;;;4932445;29;20020;-67
2024/04/04 00:20:42;;;;;;;8.75;2.20;;;21.90;99.90;;;;;;4932413;29;20039;-68
2024/04/04 00:23:09;;;;;;;5.35;1.30;;;22.00;99.90;;;;;;4932415;29;20020;-68
2024/04/04 00:25:37;;;;;;;7.95;2.53;;;21.90;99.90;;;;;;4932476;28;20028;-69
2024/04/04 00:28:05;;;;;;;12.57;2.17;;;21.90;99.90;;;;;;4932395;28;20427;-66
2024/04/04 00:30:32;;;;;;;6.78;1.90;;;21.70;99.90;;;;;;4932188;29;20035;-67
2024/04/04 00:33:00;;;;;;;5.50;1.90;;;21.70;99.90;;;;;;4932228;29;20440;-67
2024/04/04 00:35:28;;;;;;;5.78;2.28;;;21.60;99.90;;;;;;4932126;29;20091;-66
2024/04/04 00:37:55;;;;;;;9.15;2.90;;;21.50;99.90;;;;;;4932034;29;20074;-67
2024/04/04 00:40:24;;;;;;;7.32;3.00;;;21.40;99.90;;;;;;4932205;29;20024;-68
2024/04/04 00:42:52;;;;;;;8.02;2.10;;;21.40;99.90;;;;;;4932144;29;20423;-67
2024/04/04 00:45:21;;;;;;;7.88;2.10;;;21.20;99.90;;;;;;4934124;28;20028;-66
2024/04/04 00:47:50;;;;;;;8.23;3.33;;;21.00;99.90;;;;;;4935631;29;20384;-67
2024/04/04 00:50:18;;;;;;;5.45;2.10;;;20.80;99.90;;;;;;4935213;29;20086;-66
2024/04/04 00:52:46;;;;;;;4.10;2.20;;;20.70;99.90;;;;;;4935370;29;20023;-67
2024/04/04 00:55:14;;;;;;;7.07;2.30;;;20.60;99.90;;;;;;4935384;29;20131;-67
2024/04/04 00:57:44;;;;;;;7.65;2.30;;;20.40;99.90;;;;;;4935215;29;20059;-67
2024/04/04 01:00:16;;;;;;;7.43;2.40;;;20.30;99.90;;;;;;4935208;29;20020;-67
2024/04/04 01:02:44;;;;;;;9.20;2.77;;;20.20;99.90;;;;;;4935021;29;20116;-67
2024/04/04 01:05:16;;;;;;;7.97;2.60;;;20.10;99.90;;;;;;4935149;29;20027;-67
2024/04/04 01:07:46;;;;;;;10.30;2.72;;;20.10;99.90;;;;;;4935100;29;20055;-67
2024/04/04 01:10:16;;;;;;;7.95;2.40;;;20.10;99.90;;;;;;4935178;29;20485;-66
2024/04/04 01:12:45;;;;;;;12.02;3.30;;;20.10;99.90;;;;;;4934899;29;20039;-66
2024/04/04 01:15:13;;;;;;;5.32;2.60;;;20.20;99.90;;;;;;4935005;29;20039;-68
2024/04/04 01:17:41;;;;;;;8.10;2.90;;;20.10;99.90;;;;;;4935196;29;20027;-68
2024/04/04 01:20:09;;;;;;;7.93;3.22;;;20.10;99.90;;;;;;4934966;29;20119;-70
2024/04/04 01:22:37;;;;;;;6.95;2.83;;;20.10;99.90;;;;;;4935082;29;20024;-68
2024/04/04 01:25:07;;;;;;;10.50;3.35;;;20.00;99.90;;;;;;4934964;28;20024;-66
2024/04/04 01:27:35;;;;;;;11.13;3.72;;;20.10;99.90;;;;;;4934711;29;20043;-69
2024/04/04 01:30:04;;;;;;;9.02;3.00;;;20.10;99.90;;;;;;4934719;29;20047;-67
2024/04/04 01:32:33;;;;;;;11.68;3.45;;;20.00;99.90;;;;;;4934766;29;20085;-68
2024/04/04 01:35:01;;;;;;;13.15;3.20;;;20.00;99.90;;;;;;4933699;28;20395;-67
2024/04/04 01:37:29;;;;;;;12.13;4.00;;;20.00;99.90;;;;;;4934854;28;20403;-68
2024/04/04 01:39:57;;;;;;;20.02;6.65;;;20.10;99.90;;;;;;4933669;29;20110;-69
2024/04/04 01:42:25;;;;;;;10.50;4.40;;;20.10;99.90;;;;;;4946687;29;20039;-70
2024/04/04 01:44:53;;;;;;;11.73;3.42;;;20.00;99.90;;;;;;4952387;28;20030;-68
2024/04/04 01:47:21;;;;;;;18.20;4.43;;;20.10;99.90;;;;;;4934147;29;20059;-68
2024/04/04 01:49:49;;;;;;;12.63;3.42;;;20.10;99.90;;;;;;4933330;29;20087;-67
2024/04/04 01:52:18;;;;;;;14.57;3.88;;;20.10;99.90;;;;;;4933958;29;20492;-66
2024/04/04 01:54:46;;;;;;;13.40;4.07;;;20.20;99.90;;;;;;4936212;29;20036;-69
2024/04/04 01:57:14;;;;;;;12.45;3.53;;;20.30;99.90;;;;;;4952226;28;20030;-67
2024/04/04 01:59:44;;;;;;;10.23;4.25;;;20.40;99.90;;;;;;4942602;28;20035;-68
2024/04/04 02:02:11;;;;;;;9.82;3.17;;;20.30;99.90;;;;;;4944036;28;20040;-67
2024/04/04 02:04:39;;;;;;;12.48;3.97;;;20.40;99.90;;;;;;4933907;29;20032;-68
2024/04/04 02:07:08;;;;;;;9.82;3.38;;;20.40;99.90;;;;;;4934259;29;20027;-68
2024/04/04 02:09:36;;;;;;;12.05;4.47;;;20.40;99.90;;;;;;4943783;29;20482;-68
2024/04/04 02:12:04;;;;;;;12.27;3.15;;;20.30;99.90;;;;;;4936005;29;20019;-68
2024/04/04 02:14:33;;;;;;;17.92;4.35;;;20.30;99.90;;;;;;4952387;29;20027;-69
2024/04/04 02:17:01;;;;;;;9.55;3.75;;;20.20;99.90;;;;;;4952764;28;20468;-70
2024/04/04 02:19:29;;;;;;;11.30;3.38;;;20.20;99.90;;;;;;4952013;28;20039;-68
2024/04/04 02:21:57;;;;;;;12.15;2.90;;;20.20;99.90;;;;;;4950575;28;20032;-67
2024/04/04 02:24:26;;;;;;;14.43;3.20;;;20.20;99.90;;;;;;4928563;28;20063;-66
2024/04/04 02:26:54;;;;;;;14.60;3.10;;;20.30;99.90;;;;;;4935843;29;20088;-67
2024/04/04 02:29:22;;;;;;;10.20;3.30;;;20.30;99.90;;;;;;4941924;28;20039;-68
2024/04/04 02:31:50;;;;;;;11.25;2.95;;;20.30;99.90;;;;;;4933232;29;20036;-67
2024/04/04 02:34:18;;;;;;;13.07;3.22;;;20.30;99.90;;;;;;4931950;29;20181;-68
2024/04/04 02:36:46;;;;;;;9.52;2.47;;;20.30;99.90;;;;;;4931791;29;20028;-66
2024/04/04 02:39:14;;;;;;;11.68;3.30;;;20.30;99.90;;;;;;4932612;29;20020;-67
2024/04/04 02:41:42;;;;;;;9.32;3.17;;;20.30;99.90;;;;;;4932639;29;20034;-67
2024/04/04 02:44:10;;;;;;;12.10;3.60;;;20.40;99.90;;;;;;4940603;29;20024;-69
2024/04/04 02:46:38;;;;;;;13.45;3.85;;;20.40;99.90;;;;;;4938227;28;20093;-68
2024/04/04 02:49:07;;;;;;;10.02;2.85;;;20.40;99.90;;;;;;4948160;29;20050;-68
2024/04/04 02:51:34;;;;;;;10.05;2.83;;;20.20;99.90;;;;;;4951515;28;20085;-69
2024/04/04 02:54:06;;;;;;;9.27;3.33;;;20.20;99.90;;;;;;4955102;28;20043;-69
2024/04/04 02:56:33;;;;;;;7.55;3.03;;;20.30;99.90;;;;;;4943837;29;20476;-68
2024/04/04 02:59:01;;;;;;;7.70;3.00;;;20.30;99.90;;;;;;4938483;28;20035;-68
2024/04/04 03:01:28;;;;;;;12.95;3.03;;;20.30;99.90;;;;;;4951525;28;20023;-69
2024/04/04 03:03:56;;;;;;;7.40;3.00;;;20.40;99.90;;;;;;4947791;28;20034;-68
2024/04/04 03:06:23;;;;;;;10.10;2.70;;;20.50;99.90;;;;;;4951452;28;20032;-70
2024/04/04 03:08:51;;;;;;;8.13;2.80;;;20.50;99.90;;;;;;4950925;28;20468;-68
2024/04/04 03:11:18;;;;;;;8.82;3.22;;;20.60;99.90;;;;;;4948041;28;20056;-69
2024/04/04 03:13:46;;;;;;;10.95;4.05;;;20.50;99.90;;;;;;4941653;29;20020;-68
2024/04/04 03:16:13;;;;;;;9.40;2.70;;;20.60;99.90;;;;;;4951743;28;20391;-69
2024/04/04 03:18:40;;;;;;;4.88;2.42;;;20.60;99.90;;;;;;4951041;28;20031;-70
2024/04/04 03:21:07;;;;;;;6.70;2.72;;;20.60;99.90;;;;;;4944400;28;20023;-67
2024/04/04 03:23:34;;;;;;;9.65;2.95;;;20.50;99.90;;;;;;4946610;28;20490;-68
2024/04/04 03:26:02;;;;;;;7.38;3.10;;;20.60;99.90;;;;;;4950936;28;20027;-68
2024/04/04 03:28:29;;;;;;;8.70;3.15;;;20.20;99.90;;;;;;4951155;28;20027;-66
2024/04/04 03:30:57;;;;;;;6.43;2.53;;;20.10;99.90;;;;;;4950888;28;20439;-67
2024/04/04 03:33:24;;;;;;;5.32;2.50;;;20.00;99.90;;;;;;4943977;28;20035;-67
2024/04/04 03:35:51;;;;;;;5.90;3.03;;;20.10;99.90;;;;;;4932507;29;20034;-68
2024/04/04 03:38:19;;;;;;;8.32;2.47;;;20.10;99.90;;;;;;4932231;29;20067;-68
2024/04/04 03:40:53;;;;;;;8.07;2.55;;;20.10;99.90;;;;;;4932267;29;20073;-68
2024/04/04 03:43:21;;;;;;;5.00;2.20;;;20.20;99.90;;;;;;4946800;29;20108;-68
2024/04/04 03:45:48;;;;;;;11.15;3.40;;;20.10;99.90;;;;;;4936517;28;20038;-67
2024/04/04 03:48:19;;;;;;;11.52;3.45;;;20.10;99.90;;;;;;4931651;29;20028;-67
2024/04/04 03:50:47;;;;;;;7.97;2.72;;;20.00;99.90;;;;;;4953850;28;20500;-67
2024/04/04 03:53:15;;;;;;;6.35;2.55;;;20.00;99.90;;;;;;4933467;28;20059;-68
2024/04/04 03:55:42;;;;;;;5.60;2.80;;;20.10;99.90;;;;;;4933152;29;20770;-68
2024/04/04 03:58:11;;;;;;;9.52;2.40;;;20.20;99.90;;;;;;4941119;28;20046;-67
2024/04/04 04:00:38;;;;;;;6.93;2.45;;;20.10;99.90;;;;;;4939491;28;20101;-67
2024/04/04 04:03:06;;;;;;;8.45;2.90;;;20.10;99.90;;;;;;4923535;29;20031;-68
2024/04/04 04:05:33;;;;;;;9.07;3.47;;;20.20;99.90;;;;;;4924437;28;20020;-67
2024/04/04 04:08:00;;;;;;;8.02;2.65;;;20.20;99.90;;;;;;4932913;28;20364;-68
2024/04/04 04:10:30;;;;;;;6.68;2.90;;;20.10;99.90;;;;;;4922240;29;20034;-67
2024/04/04 04:13:00;;;;;;;11.80;3.05;;;20.00;99.90;;;;;;4928297;29;20066;-68
2024/04/04 04:15:27;;;;;;;10.77;3.03;;;20.00;99.90;;;;;;4922176;29;20082;-67
2024/04/04 04:17:55;;;;;;;5.10;2.65;;;20.00;99.90;;;;;;4935993;29;20031;-67
2024/04/04 04:23:08;;;;;;;5.28;2.25;;;20.00;99.90;;;;;;4932476;29;20038;-69
2024/04/04 04:25:35;;;;;;;10.77;2.63;;;20.10;99.90;;;;;;4922033;29;20094;-68
2024/04/04 04:28:03;;;;;;;3.92;1.90;;;19.90;99.90;;;;;;4933743;28;20016;-67
2024/04/04 04:30:30;;;;;;;5.28;2.40;;;20.00;99.90;;;;;;4948435;28;20048;-68
2024/04/04 04:32:57;;;;;;;4.93;2.53;;;20.10;99.90;;;;;;4933812;28;20015;-68
2024/04/04 04:35:25;;;;;;;7.93;2.70;;;20.00;99.90;;;;;;4943265;28;20034;-68
2024/04/04 04:37:52;;;;;;;5.18;2.63;;;20.20;99.90;;;;;;4940121;28;20050;-68
2024/04/04 04:40:19;;;;;;;6.93;3.40;;;20.20;99.90;;;;;;4936426;28;20066;-68
2024/04/04 04:42:46;;;;;;;8.30;2.55;;;20.30;99.90;;;;;;4928067;29;20066;-69
2024/04/04 04:45:16;;;;;;;5.40;2.45;;;20.30;99.90;;;;;;4930185;28;20031;-69
2024/04/04 04:47:44;;;;;;;7.93;3.40;;;20.30;99.90;;;;;;4943557;28;20031;-69
2024/04/04 04:50:11;;;;;;;9.43;2.95;;;20.20;99.90;;;;;;4942606;28;20044;-69
2024/04/04 04:52:38;;;;;;;5.75;2.47;;;20.10;99.90;;;;;;4930258;28;20063;-70
2024/04/04 04:55:06;;;;;;;6.40;2.60;;;20.20;99.90;;;;;;4935544;29;20046;-71
2024/04/04 04:57:33;;;;;;;13.02;3.40;;;20.20;99.90;;;;;;4935020;29;20027;-71
2024/04/04 05:00:01;;;;;;;10.45;2.78;;;20.30;99.90;;;;;;4940714;28;20019;-70
2024/04/04 05:02:28;;;;;;;11.82;5.88;;;20.40;99.90;;;;;;4941946;28;20100;-71
2024/04/04 05:04:55;;;;;;;10.00;4.25;;;20.30;99.90;;;;;;4928369;29;20585;-70
2024/04/04 05:07:23;;;;;;;9.00;4.13;;;20.40;99.90;;;;;;4938367;28;20024;-69
2024/04/04 05:09:50;;;;;;;4.90;2.75;;;20.40;99.90;;;;;;4950915;28;20685;-69
2024/04/04 05:12:17;;;;;;;9.00;2.70;;;20.50;99.90;;;;;;4939563;29;20035;-67
2024/04/04 05:14:44;;;;;;;7.13;2.78;;;20.50;99.90;;;;;;4925655;28;20046;-69
2024/04/04 05:17:12;;;;;;;8.60;3.08;;;20.60;99.90;;;;;;4933340;28;20078;-69
2024/04/04 05:19:39;;;;;;;10.63;3.38;;;20.60;99.90;;;;;;4924271;29;20058;-70
2024/04/04 05:22:06;;;;;;;7.15;3.15;;;20.70;99.90;;;;;;4922776;29;20035;-70
2024/04/04 05:24:33;;;;;;;10.55;3.10;;;20.60;99.90;;;;;;4924412;29;20028;-70
2024/04/04 05:27:00;;;;;;;7.80;2.50;;;20.40;99.90;;;;;;4921142;29;20388;-69
2024/04/04 05:29:28;;;;;;;9.45;2.50;;;20.40;99.90;;;;;;4924242;29;20165;-69
2024/04/04 05:31:55;;;;;;;7.90;3.15;;;20.30;99.90;;;;;;4933391;29;20157;-70
2024/04/04 05:34:26;;;;;;;6.18;3.22;;;20.40;99.90;;;;;;4947448;28;20471;-69
2024/04/04 05:36:54;;;;;;;5.70;2.53;;;20.40;99.90;;;;;;4940220;28;20019;-70
2024/04/04 05:39:21;;;;;;;11.35;3.60;;;20.20;99.90;;;;;;4927239;29;20388;-70
2024/04/04 05:41:48;;;;;;;5.72;2.53;;;20.20;99.90;;;;;;4945802;28;20023;-70
2024/04/04 05:44:16;;;;;;;7.95;2.67;;;20.20;99.90;;;;;;4964742;28;20023;-69
2024/04/04 05:46:43;;;;;;;5.43;2.38;;;20.30;99.90;;;;;;4965354;28;20026;-69
2024/04/04 05:49:10;;;;;;;6.88;2.35;;;20.30;99.90;;;;;;4962886;28;20050;-70
2024/04/04 05:51:37;;;;;;;6.47;2.58;;;20.40;99.90;;;;;;4934727;28;20353;-69
2024/04/04 05:54:05;;;;;;;7.55;2.78;;;20.30;99.90;;;;;;4924752;29;20028;-69
2024/04/04 05:56:32;;;;;;;4.95;2.10;;;20.40;99.90;;;;;;4926679;29;20031;-68
2024/04/04 05:58:59;;;;;;;7.50;1.98;;;20.30;99.90;;;;;;4924224;29;20024;-69
2024/04/04 06:01:26;;;;;;;5.00;2.22;;;20.40;99.90;;;;;;4939987;29;20110;-69
2024/04/04 06:03:54;;;;;;;6.75;2.90;;;20.40;99.90;;;;;;4944396;28;20073;-70
2024/04/04 06:06:21;;;;;;;5.43;3.20;;;20.40;99.90;;;;;;4945553;28;20046;-68
2024/04/04 06:08:50;;;;;;;6.35;2.72;;;20.30;99.90;;;;;;4947956;28;20035;-67
2024/04/04 06:11:17;;;;;;;5.60;2.65;;;20.30;99.90;;;;;;4952845;28;20035;-68
2024/04/04 06:13:44;;;;;;;6.35;3.33;;;20.30;99.90;;;;;;4946874;28;20070;-69
2024/04/04 06:16:11;;;;;;;8.45;3.72;;;20.30;99.90;;;;;;4953100;28;20057;-68
2024/04/04 06:18:39;;;;;;;5.25;2.47;;;20.30;99.90;;;;;;4953063;28;20055;-68
2024/04/04 06:21:06;;;;;;;4.50;2.42;;;20.30;99.90;;;;;;4952730;28;20038;-68
2024/04/04 06:23:33;;;;;;;6.13;3.30;;;20.30;99.90;;;;;;4953433;28;20353;-68
2024/04/04 06:26:00;;;;;;;3.83;2.40;;;20.30;99.90;;;;;;4953273;28;20019;-68
2024/04/04 06:28:28;;;;;;;6.03;2.22;;;20.20;99.90;;;;;;4946402;28;20024;-68
2024/04/04 06:30:55;;;;;;;8.48;3.33;;;20.20;99.90;;;;;;4940684;28;20023;-69
2024/04/04 06:33:22;;;;;;;6.47;2.50;;;20.20;99.90;;;;;;4952498;28;20027;-68
2024/04/04 06:35:49;;;;;;;6.88;2.83;;;20.20;99.90;;;;;;4971809;28;20069;-68
2024/04/04 06:38:17;;;;;;;8.15;2.95;;;20.20;99.90;;;;;;4967206;28;20489;-67
2024/04/04 06:40:44;;;;;;;6.07;2.47;;;20.10;99.90;;;;;;4950646;28;20023;-67
2024/04/04 06:43:12;;;;;;;3.42;2.00;;;20.20;99.90;;;;;;4932191;29;20032;-67
2024/04/04 06:45:39;;;;;;;4.63;2.03;;;20.20;99.90;;;;;;4932942;29;20120;-67
2024/04/04 06:48:07;;;;;;;6.72;3.60;;;20.10;99.90;;;;;;4933353;29;20519;-68
2024/04/04 06:50:34;;;;;;;8.68;3.40;;;20.00;99.90;;;;;;4932604;29;20512;-67
2024/04/04 06:53:02;;;;;;;8.05;4.00;;;20.00;99.90;;;;;;4932712;29;20042;-67
2024/04/04 06:55:31;;;;;;;13.15;4.32;;;19.90;99.90;;;;;;4926766;29;20478;-68
2024/04/04 06:57:58;;;;;;;7.97;2.33;;;20.00;99.90;;;;;;4932717;29;20030;-69
2024/04/04 07:00:25;;;;;;;7.82;3.10;;;20.00;99.90;;;;;;4927660;29;20055;-68
2024/04/04 07:02:52;;;;;;;7.15;3.35;;;20.00;99.90;;;;;;4932831;29;20028;-68
2024/04/04 07:05:20;;;;;;;4.43;2.33;;;20.00;99.90;;;;;;4933311;29;20051;-68
2024/04/04 07:07:47;;;;;;;8.20;3.33;;;20.00;99.90;;;;;;4933257;29;20039;-69
2024/04/04 07:10:14;;;;;;;8.30;3.90;;;20.00;99.90;;;;;;4932622;29;20110;-67
2024/04/04 07:12:41;;;;;;;10.00;3.05;;;20.10;99.90;;;;;;4932704;29;20032;-67
2024/04/04 07:15:09;;;;;;;9.90;3.05;;;20.10;99.90;;;;;;4932799;29;20388;-67
2024/04/04 07:17:36;;;;;;;6.35;3.15;;;20.00;99.90;;;;;;4947682;29;20073;-68
2024/04/04 07:20:05;;;;;;;6.90;2.95;;;20.00;99.90;;;;;;4934143;28;20024;-66
2024/04/04 07:22:32;;;;;;;7.65;3.00;;;20.10;99.90;;;;;;4932409;29;20032;-65
2024/04/04 07:25:00;;;;;;;12.48;4.55;;;20.10;99.90;;;;;;4932448;29;20024;-66
2024/04/04 07:27:27;;;;;;;12.38;4.95;;;20.10;99.90;;;;;;4930123;29;20105;-69
2024/04/04 07:29:55;;;;;;;8.25;3.50;;;20.10;99.90;;;;;;4929006;29;20093;-67
2024/04/04 07:32:22;;;;;;;6.88;3.40;;;20.10;99.90;;;;;;4933885;29;20024;-68
2024/04/04 07:34:49;;;;;;;6.50;2.65;;;20.00;99.90;;;;;;4939772;29;20053;-69
2024/04/04 07:37:17;;;;;;;6.97;2.72;;;20.00;99.90;;;;;;4942014;29;20046;-67
2024/04/04 07:39:44;;;;;;;8.00;2.85;;;20.00;99.90;;;;;;4930999;29;20032;-68
2024/04/04 07:42:11;;;;;;;4.88;2.70;;;19.90;99.90;;;;;;4937172;29;20030;-67
2024/04/04 07:44:38;;;;;;;8.85;3.13;;;19.90;99.90;;;;;;4939577;28;20032;-68
2024/04/04 07:47:06;;;;;;;8.05;3.00;;;19.90;99.90;;;;;;4942641;29;20098;-69
2024/04/04 07:49:34;;;;;;;7.78;2.92;;;19.90;99.90;;;;;;4937082;28;20051;-67
2024/04/04 07:52:01;;;;;;;10.90;3.35;;;20.00;99.90;;;;;;4938296;29;20019;-67
2024/04/04 07:54:29;;;;;;;12.18;4.07;;;19.90;99.90;;;;;;4947542;28;20039;-67
2024/04/04 07:56:56;;;;;;;6.70;3.20;;;19.90;99.90;;;;;;4950671;28;20429;-68
2024/04/04 07:59:24;;;;;;;6.75;3.78;;;19.90;99.90;;;;;;4928658;28;20028;-68
2024/04/04 08:01:51;;;;;;;15.15;4.40;;;20.00;99.90;;;;;;4935807;29;20027;-69
2024/04/04 08:04:18;;;;;;;6.35;3.25;;;20.00;99.90;;;;;;4941704;28;20633;-68
2024/04/04 08:06:46;;;;;;;12.43;3.45;;;20.00;99.90;;;;;;4925608;29;20098;-67
2024/04/04 08:09:13;;;;;;;12.05;3.42;;;19.90;99.90;;;;;;4924685;29;20035;-68
2024/04/04 08:11:41;;;;;;;8.52;3.95;;;19.90;99.90;;;;;;4924561;29;20111;-68
2024/04/04 08:14:08;;;;;;;8.00;3.53;;;19.90;99.90;;;;;;4924401;29;20543;-66
2024/04/04 08:16:36;;;;;;;5.90;3.58;;;19.90;99.90;;;;;;4922772;29;20679;-66
2024/04/04 08:19:04;;;;;;;10.20;4.03;;;19.90;99.90;;;;;;4929668;29;20032;-68
2024/04/04 08:21:32;;;;;;;10.05;4.25;;;19.80;99.90;;;;;;4941266;28;20035;-66
2024/04/04 08:23:59;;;;;;;11.40;4.38;;;19.80;99.90;;;;;;4938423;28;20028;-68
2024/04/04 08:26:27;;;;;;;9.00;3.53;;;19.80;99.90;;;;;;4930552;28;20028;-67
2024/04/04 08:28:54;;;;;;;10.60;4.18;;;19.90;99.90;;;;;;4924816;29;20067;-67
2024/04/04 08:31:22;;;;;;;6.78;3.85;;;19.80;99.90;;;;;;4935735;29;20046;-68
2024/04/04 08:33:49;;;;;;;9.35;3.63;;;19.80;99.90;;;;;;4943175;28;20019;-67
2024/04/04 08:36:16;;;;;;;10.65;3.42;;;19.70;99.90;;;;;;4934251;28;20032;-68
2024/04/04 08:38:44;;;;;;;12.25;5.05;;;19.80;99.90;;;;;;4922864;29;20026;-67
2024/04/04 08:41:12;;;;;;;9.02;4.32;;;19.70;99.90;;;;;;4943527;29;20035;-67
2024/04/04 08:43:39;;;;;;;10.40;5.03;;;19.80;99.90;;;;;;4941021;28;20028;-67
2024/04/04 08:46:07;;;;;;;15.05;7.22;;;19.70;99.90;;;;;;4943918;28;20031;-67
2024/04/04 08:48:35;;;;;;;10.02;5.85;;;19.70;99.90;;;;;;4940503;28;20460;-67
2024/04/04 08:51:02;;;;;;;10.60;6.22;;;19.80;99.90;;;;;;4925960;28;20044;-67
2024/04/04 08:53:29;;;;;;;14.50;7.35;;;19.80;99.90;;;;;;4927395;29;20103;-66
2024/04/04 08:55:59;;;;;;;12.73;6.40;;;19.80;99.90;;;;;;4944495;28;20517;-66
2024/04/04 08:58:26;;;;;;;10.98;6.30;;;19.80;99.90;;;;;;4940843;28;20387;-68
2024/04/04 09:00:53;;;;;;;11.57;8.02;;;19.80;99.90;;;;;;4933587;28;20023;-68
2024/04/04 09:03:22;;;;;;;9.07;5.28;;;19.80;99.90;;;;;;4932617;29;20020;-68
2024/04/04 09:05:52;;;;;;;14.73;5.78;;;19.80;99.90;;;;;;4932678;28;20020;-67
2024/04/04 09:08:20;;;;;;;9.85;4.85;;;19.70;99.90;;;;;;4936419;28;20382;-68
2024/04/04 09:10:50;;;;;;;8.52;4.55;;;19.70;99.90;;;;;;4937624;29;20513;-68
2024/04/04 09:13:21;;;;;;;8.98;4.05;;;19.80;99.90;;;;;;4932952;28;20039;-67
2024/04/04 09:15:49;;;;;;;9.73;3.37;;;19.80;99.90;;;;;;4937737;29;20376;-66
2024/04/04 09:18:16;;;;;;;11.27;3.75;;;19.70;99.90;;;;;;4936940;28;20738;-69
2024/04/04 09:20:43;;;;;;;12.10;4.57;;;19.70;99.90;;;;;;4936665;28;20042;-69
2024/04/04 09:23:11;;;;;;;9.30;3.97;;;19.60;99.90;;;;;;4930434;28;20027;-68
2024/04/04 09:25:39;;;;;;;9.23;3.70;;;19.60;99.90;;;;;;4928844;29;20034;-67
2024/04/04 09:28:09;;;;;;;12.05;3.25;;;19.60;99.90;;;;;;4927862;29;20036;-68
2024/04/04 09:30:38;;;;;;;12.23;4.07;;;19.70;99.90;;;;;;4930081;29;20514;-69
2024/04/04 09:33:07;;;;;;;15.60;5.30;;;19.70;99.90;;;;;;4944117;28;20491;-66
2024/04/04 09:35:35;;;;;;;15.63;4.28;;;19.70;99.90;;;;;;4942831;28;20356;-68
2024/04/04 09:38:02;;;;;;;11.63;3.58;;;19.70;99.90;;;;;;4946844;28;20404;-68
2024/04/04 09:40:29;;;;;;;12.27;3.15;;;19.80;99.90;;;;;;4943873;28;20023;-70
2024/04/04 09:42:58;;;;;;;14.52;3.30;;;19.70;99.90;;;;;;4941002;29;20027;-68
2024/04/04 09:45:26;;;;;;;14.30;4.70;;;19.80;99.90;;;;;;4946018;28;20118;-70
2024/04/04 09:47:54;;;;;;;11.25;3.65;;;19.80;99.90;;;;;;4944644;28;20027;-69
2024/04/04 09:50:21;;;;;;;15.00;3.53;;;19.70;99.90;;;;;;4946093;28;20470;-69
2024/04/04 09:52:49;;;;;;;10.75;3.75;;;19.70;99.90;;;;;;4925419;28;20121;-69
2024/04/04 09:55:22;;;;;;;14.23;4.72;;;19.70;99.90;;;;;;4927485;29;20023;-70
2024/04/04 09:57:50;;;;;;;10.23;4.30;;;19.70;99.90;;;;;;4924498;29;20469;-69
2024/04/04 10:00:19;;;;;;;12.50;4.82;;;19.70;99.90;;;;;;4937343;29;20073;-69
2024/04/04 10:03:00;;;;;;;11.10;4.10;;;19.70;99.90;;;;;;4941776;28;20047;-69
2024/04/04 10:05:35;;;;;;;10.57;4.38;;;19.70;99.90;;;;;;4926862;28;20550;-70
2024/04/04 10:08:13;;;;;;;12.55;3.47;;;19.60;99.90;;;;;;4939882;29;20027;-69
2024/04/04 10:10:43;;;;;;;16.95;4.32;;;19.60;99.90;;;;;;4942761;28;20480;-69
2024/04/04 10:13:13;;;;;;;7.88;3.35;;;19.60;99.90;;;;;;4945589;28;20028;-69
2024/04/04 10:15:44;;;;;;;17.88;4.82;;;19.60;99.90;;;;;;4925007;28;20040;-69
2024/04/04 10:18:12;;;;;;;12.10;2.95;;;19.60;99.90;;;;;;4926859;29;20024;-69
2024/04/04 10:20:41;;;;;;;13.27;4.05;;;19.60;99.90;;;;;;4923798;29;20043;-70
2024/04/04 10:23:13;;;;;;;14.77;3.72;;;19.60;99.90;;;;;;4926587;29;20027;-71
2024/04/04 10:25:43;;;;;;;12.80;4.18;;;19.60;99.90;;;;;;4929424;29;20019;-70
2024/04/04 10:28:11;;;;;;;21.13;4.28;;;19.60;99.90;;;;;;4945488;28;20094;-69
2024/04/04 10:30:40;;;;;;;16.75;3.70;;;19.50;99.90;;;;;;4936257;29;20067;-70
2024/04/04 10:33:18;;;;;;;8.50;3.50;;;19.50;99.90;;;;;;4943384;28;20036;-68
2024/04/04 10:35:45;;;;;;;11.68;2.88;;;19.50;99.90;;;;;;4923923;29;20066;-67
2024/04/04 10:38:13;;;;;;;13.25;4.68;;;19.50;99.90;;;;;;4926794;29;20524;-69
2024/04/04 10:40:41;;;;;;;13.02;4.55;;;19.50;99.90;;;;;;4924396;29;20415;-70
2024/04/04 10:43:09;;;;;;;16.08;3.55;;;19.50;99.90;;;;;;4936806;29;20111;-68
2024/04/04 10:45:40;;;;;;;13.45;3.30;;;19.50;99.90;;;;;;4949706;28;20540;-70
2024/04/04 10:48:07;;;;;;;9.38;4.10;;;19.50;99.90;;;;;;4943489;28;20062;-69
2024/04/04 10:50:36;;;;;;;9.88;3.10;;;19.40;99.90;;;;;;4926632;29;20117;-69
2024/04/04 10:53:04;;;;;;;11.73;3.95;;;19.50;99.90;;;;;;4937147;28;20030;-70
2024/04/04 10:55:35;;;;;;;16.52;4.55;;;19.40;99.90;;;;;;4926687;29;20034;-67
2024/04/04 10:58:07;;;;;;;13.65;3.35;;;19.50;99.90;;;;;;4924275;29;20038;-69
2024/04/04 11:00:35;;;;;;;15.30;3.38;;;19.40;99.90;;;;;;4941962;29;20085;-69
2024/04/04 11:03:08;;;;;;;16.45;4.57;;;19.40;99.90;;;;;;4942730;28;20433;-69
2024/04/04 11:05:37;;;;;;;16.38;3.53;;;19.50;99.90;;;;;;4926537;29;20431;-70
2024/04/04 11:08:06;;;;;;;16.70;4.43;;;19.50;99.90;;;;;;4924312;29;20032;-68
2024/04/04 11:10:34;;;;;;;11.40;3.53;;;19.50;99.90;;;;;;4925053;29;20036;-67
2024/04/04 11:13:02;;;;;;;14.32;3.60;;;19.40;99.90;;;;;;4922482;29;20031;-68
2024/04/04 11:15:31;;;;;;;19.80;3.53;;;19.50;99.90;;;;;;4945582;28;20029;-67
2024/04/04 11:17:59;;;;;;;22.52;4.93;;;19.40;99.90;;;;;;4940791;28;20023;-68
2024/04/04 11:20:27;;;;;;;14.30;4.82;;;19.40;99.90;;;;;;4945648;28;20023;-67
2024/04/04 11:22:58;;;;;;;11.93;4.13;;;19.40;99.90;;;;;;4940383;29;20077;-68
2024/04/04 11:25:25;;;;;;;9.63;3.08;;;19.40;99.90;;;;;;4945056;28;20038;-68
2024/04/04 11:27:52;;;;;;;16.08;4.82;;;19.40;99.90;;;;;;4939892;28;20027;-68
2024/04/04 11:30:20;;;;;;;10.13;3.00;;;19.30;99.90;;;;;;4954126;28;20034;-67
2024/04/04 11:32:47;;;;;;;12.77;4.28;;;19.40;99.90;;;;;;4962490;28;20015;-69
2024/04/04 11:35:18;;;;;;;14.70;3.20;;;19.40;99.90;;;;;;4930290;28;20042;-68
2024/04/04 11:37:45;;;;;;;11.43;3.38;;;19.30;99.90;;;;;;4923760;29;20028;-70
2024/04/04 11:40:13;;;;;;;16.73;4.70;;;19.40;99.90;;;;;;4925738;29;20448;-67
2024/04/04 11:42:40;;;;;;;16.27;3.67;;;19.30;99.90;;;;;;4942267;28;20038;-67
2024/04/04 11:45:09;;;;;;;17.25;3.85;;;19.40;99.90;;;;;;4960162;28;20062;-68
2024/04/04 11:47:36;;;;;;;10.95;3.35;;;19.40;99.90;;;;;;4964274;28;20421;-68
2024/04/04 11:50:03;;;;;;;16.17;4.03;;;19.40;99.90;;;;;;4953683;28;20097;-70
2024/04/04 11:52:31;;;;;;;14.73;3.90;;;19.40;99.90;;;;;;4925425;29;20024;-68
2024/04/04 11:54:58;;;;;;;13.98;4.32;;;19.40;99.90;;;;;;4923056;29;20455;-67
2024/04/04 11:57:25;;;;;;;10.95;3.83;;;19.40;99.90;;;;;;4925507;29;20542;-69
2024/04/04 11:59:52;;;;;;;20.25;4.35;;;19.40;99.90;;;;;;4922639;29;20028;-71
2024/04/04 12:02:22;;;;;;;12.18;3.25;;;19.40;99.90;;;;;;4925883;29;20051;-69
2024/04/04 12:04:49;;;;;;;13.98;3.58;;;19.40;99.90;;;;;;4924788;29;20024;-71
2024/04/04 12:07:17;;;;;;;12.38;3.28;;;19.40;99.90;;;;;;4925111;29;20070;-69
2024/04/04 12:09:44;;;;;;;13.30;3.38;;;19.40;99.90;;;;;;4925689;29;20040;-67
2024/04/04 12:12:12;;;;;;;14.98;2.90;;;19.40;99.90;;;;;;4922491;29;20020;-67
2024/04/04 12:14:39;;;;;;;17.77;3.97;;;19.30;99.90;;;;;;4925729;29;20024;-67
2024/04/04 12:17:16;;;;;;;13.20;3.65;;;19.30;99.90;;;;;;4922888;29;20139;-67
2024/04/04 12:19:44;;;;;;;18.05;3.75;;;19.30;99.90;;;;;;4925479;29;20032;-66
2024/04/04 12:22:11;;;;;;;12.45;3.50;;;19.40;99.90;;;;;;4922432;29;20012;-68
2024/04/04 12:24:38;;;;;;;15.13;3.95;;;19.40;99.90;;;;;;4925682;29;20028;-69
2024/04/04 12:27:06;;;;;;;16.60;4.00;;;19.30;99.90;;;;;;4922848;29;20032;-68
2024/04/04 12:29:33;;;;;;;12.82;3.60;;;19.30;99.90;;;;;;4926247;29;20039;-68
2024/04/04 12:32:01;;;;;;;14.75;4.50;;;19.30;99.90;;;;;;4922428;29;20028;-69
2024/04/04 12:34:28;;;;;;;14.40;3.42;;;19.30;99.90;;;;;;4925252;29;20035;-68
2024/04/04 12:36:55;;;;;;;15.02;3.65;;;19.30;99.90;;;;;;4923998;29;20024;-69
2024/04/04 12:39:23;;;;;;;15.60;3.55;;;19.30;99.90;;;;;;4924596;29;20031;-69
2024/04/04 12:41:50;;;;;;;17.15;3.33;;;19.20;99.90;;;;;;4928804;29;20380;-68
2024/04/04 12:44:17;;;;;;;14.15;3.17;;;19.30;99.90;;;;;;4925757;29;20030;-69
2024/04/04 12:46:45;;;;;;;12.43;4.28;;;19.20;99.90;;;;;;4928769;29;20027;-69
2024/04/04 12:49:14;;;;;;;14.75;3.28;;;19.20;99.90;;;;;;4925440;29;20125;-69